Time;durP1;ratioP1;P1;durP2;ratioP2;P2;SDS_P1;SDS_P2;PMS_P1;PMS_P2;Temp;Humidity;BMP_temperature;BMP_pressure;BME280_temperature;BME280_humidity;BME280_pressure;Samples;Min_cycle;Max_cycle;Signal;HPM_P1;HPM_P2
2023/10/15 00:00:05;;;;;;;6.37;2.37;;;;;;;;;;4926502;29;20318;-82
2023/10/15 00:02:52;;;;;;;4.77;2.13;;;;;;;;;;4917221;29;20188;-82
2023/10/15 00:05:35;;;;;;;4.10;1.63;;;;;;;;;;4936161;29;20180;-82
2023/10/15 00:11:22;;;;;;;6.63;2.07;;;;;;;;;;4916874;29;20287;-83
2023/10/15 00:13:48;;;;;;;4.23;1.77;;;;;;;;;;4910750;29;20245;-83
2023/10/15 00:25:26;;;;;;;4.67;2.00;;;;;;;;;;4947120;29;20239;-83
2023/10/15 00:27:58;;;;;;;4.40;1.93;;;;;;;;;;4918142;29;20196;-83
2023/10/15 00:30:44;;;;;;;6.10;1.90;;;;;;;;;;4946227;29;20220;-83
2023/10/15 00:33:26;;;;;;;4.73;1.87;;;;;;;;;;4942248;29;20275;-83
2023/10/15 00:39:00;;;;;;;4.20;1.70;;;;;;;;;;4925681;29;20231;-82
2023/10/15 00:41:53;;;;;;;4.20;1.77;;;;;;;;;;4896204;29;20196;-82
2023/10/15 00:44:28;;;;;;;4.70;2.00;;;;;;;;;;4918106;29;20250;-82
2023/10/15 00:50:09;;;;;;;;;;;;;;;;;;;;;
2023/10/15 01:05:03;;;;;;;3.53;1.27;;;;;;;;;;4941982;29;20218;-84
2023/10/15 01:08:16;;;;;;;3.47;1.33;;;;;;;;;;4937105;29;20195;-84
2023/10/15 01:13:46;;;;;;;2.90;1.30;;;;;;;;;;4936614;29;20239;-83
2023/10/15 01:16:35;;;;;;;3.07;1.50;;;;;;;;;;4941953;29;20183;-84
2023/10/15 01:19:31;;;;;;;4.93;1.30;;;;;;;;;;4935981;29;20200;-82
2023/10/15 01:22:21;;;;;;;3.53;1.50;;;;;;;;;;4919247;29;20199;-83
2023/10/15 01:25:24;;;;;;;3.40;1.47;;;;;;;;;;4934294;29;20284;-83
2023/10/15 01:37:43;;;;;;;2.53;1.23;;;;;;;;;;4786356;29;20240;-84
2023/10/15 01:46:48;;;;;;;3.00;1.20;;;;;;;;;;4786556;30;20211;-84
2023/10/15 01:49:31;;;;;;;3.03;1.27;;;;;;;;;;4717976;30;20211;-84
2023/10/15 01:55:04;;;;;;;5.80;1.43;;;;;;;;;;4731017;30;20214;-84
2023/10/15 02:00:45;;;;;;;3.60;1.30;;;;;;;;;;4751576;29;20244;-84
2023/10/15 02:03:18;;;;;;;3.63;1.37;;;;;;;;;;4768309;29;20203;-85
2023/10/15 02:08:51;;;;;;;3.67;1.50;;;;;;;;;;4822575;29;20275;-85
2023/10/15 02:11:47;;;;;;;3.53;1.47;;;;;;;;;;4806841;29;20223;-85
2023/10/15 02:23:12;;;;;;;4.43;1.60;;;;;;;;;;4940443;29;20312;-84
2023/10/15 02:26:18;;;;;;;3.87;1.33;;;;;;;;;;4905055;29;20280;-84
2023/10/15 02:31:46;;;;;;;3.67;1.23;;;;;;;;;;4944132;29;20255;-84
2023/10/15 02:34:31;;;;;;;4.47;1.40;;;;;;;;;;4918549;29;20197;-84
2023/10/15 02:46:50;;;;;;;4.20;1.37;;;;;;;;;;4889903;29;20177;-84
2023/10/15 02:56:18;;;;;;;4.00;1.73;;;;;;;;;;4825169;29;20182;-84
2023/10/15 03:02:15;;;;;;;3.43;1.37;;;;;;;;;;4824839;29;20199;-85
2023/10/15 03:04:55;;;;;;;3.70;1.63;;;;;;;;;;4819242;29;20203;-85
2023/10/15 03:07:52;;;;;;;4.53;1.50;;;;;;;;;;4815342;29;20187;-85
2023/10/15 03:16:07;;;;;;;3.77;1.50;;;;;;;;;;4901128;28;20208;-84
2023/10/15 03:18:52;;;;;;;5.53;1.50;;;;;;;;;;4886082;29;20197;-84
2023/10/15 03:21:38;;;;;;;3.27;1.50;;;;;;;;;;4898185;29;20209;-85
2023/10/15 03:24:07;;;;;;;2.53;1.30;;;;;;;;;;4897481;29;20321;-84
2023/10/15 03:26:47;;;;;;;3.57;1.40;;;;;;;;;;4892520;29;20200;-84
2023/10/15 03:29:21;;;;;;;5.00;1.30;;;;;;;;;;4913232;29;20203;-85
2023/10/15 03:32:12;;;;;;;4.03;1.30;;;;;;;;;;4936283;29;20222;-85
2023/10/15 03:35:18;;;;;;;4.10;1.30;;;;;;;;;;4936436;29;20199;-84
2023/10/15 03:37:45;;;;;;;2.80;1.10;;;;;;;;;;4917115;29;20234;-84
2023/10/15 03:40:30;;;;;;;2.43;1.00;;;;;;;;;;4930624;29;20195;-84
2023/10/15 03:43:15;;;;;;;3.80;1.10;;;;;;;;;;4927887;29;20286;-84
2023/10/15 03:49:10;;;;;;;2.60;1.13;;;;;;;;;;4919062;29;20256;-84
2023/10/15 03:55:24;;;;;;;3.00;1.50;;;;;;;;;;4942236;29;20187;-84
2023/10/15 04:01:30;;;;;;;2.00;1.00;;;;;;;;;;4943313;29;20261;-85
2023/10/15 04:10:33;;;;;;;3.03;1.40;;;;;;;;;;4944732;29;20197;-84
2023/10/15 04:13:08;;;;;;;2.63;1.50;;;;;;;;;;4955054;29;20192;-85
2023/10/15 04:18:50;;;;;;;4.47;1.40;;;;;;;;;;4950852;29;20183;-83
2023/10/15 04:27:26;;;;;;;2.47;1.00;;;;;;;;;;4953860;29;20194;-83
2023/10/15 04:30:36;;;;;;;2.20;1.17;;;;;;;;;;4952424;28;20251;-83
2023/10/15 04:36:22;;;;;;;1.07;0.90;;;;;;;;;;4936996;29;20215;-83
2023/10/15 04:42:08;;;;;;;2.13;1.00;;;;;;;;;;4936982;29;20268;-84
2023/10/15 04:54:02;;;;;;;1.53;0.90;;;;;;;;;;4940329;29;20179;-84
2023/10/15 04:56:52;;;;;;;1.73;1.10;;;;;;;;;;4943526;29;20184;-84
2023/10/15 04:59:36;;;;;;;3.33;1.10;;;;;;;;;;4932523;29;20196;-84
2023/10/15 05:02:25;;;;;;;2.13;1.03;;;;;;;;;;4918898;29;20226;-84
2023/10/15 05:04:52;;;;;;;2.17;1.10;;;;;;;;;;4925006;29;20184;-84
2023/10/15 05:16:31;;;;;;;2.50;1.10;;;;;;;;;;4930674;29;20222;-84
2023/10/15 05:22:19;;;;;;;1.53;1.10;;;;;;;;;;4893742;29;20268;-84
2023/10/15 05:25:17;;;;;;;5.23;1.20;;;;;;;;;;4880610;29;20204;-84
2023/10/15 05:28:07;;;;;;;1.97;0.97;;;;;;;;;;4897135;29;20271;-84
2023/10/15 05:33:43;;;;;;;1.80;0.93;;;;;;;;;;4923988;29;20215;-84
2023/10/15 05:39:41;;;;;;;1.63;1.10;;;;;;;;;;4928414;29;20298;-84
2023/10/15 05:42:40;;;;;;;;;;;;;;;;;;;;;
2023/10/15 05:45:22;;;;;;;3.33;1.20;;;;;;;;;;4929112;29;20199;-84
2023/10/15 05:51:03;;;;;;;2.97;1.27;;;;;;;;;;4944005;29;20265;-84
2023/10/15 06:09:06;;;;;;;2.40;1.30;;;;;;;;;;4953926;29;20206;-84
2023/10/15 06:14:59;;;;;;;4.40;1.70;;;;;;;;;;4946183;29;20237;-83
2023/10/15 06:18:11;;;;;;;3.10;1.47;;;;;;;;;;4947649;29;20194;-84
2023/10/15 06:29:39;;;;;;;1.77;1.10;;;;;;;;;;4900956;29;20172;-83
2023/10/15 06:35:25;;;;;;;3.07;1.40;;;;;;;;;;4907962;29;20293;-84
2023/10/15 06:37:58;;;;;;;3.90;1.40;;;;;;;;;;4895699;29;20301;-84
2023/10/15 06:43:57;;;;;;;3.10;1.70;;;;;;;;;;4911063;28;20200;-85
2023/10/15 06:59:10;;;;;;;6.77;2.00;;;;;;;;;;4911953;29;20183;-84
2023/10/15 07:05:07;;;;;;;5.17;1.90;;;;;;;;;;4915033;29;20202;-87
2023/10/15 07:07:34;;;;;;;3.20;1.53;;;;;;;;;;4901515;29;20329;-86
2023/10/15 07:10:23;;;;;;;2.43;1.80;;;;;;;;;;4909424;29;20248;-84
2023/10/15 07:25:24;;;;;;;4.90;1.80;;;;;;;;;;4929017;29;20179;-84
2023/10/15 07:28:28;;;;;;;;;;;;;;;;;;;;;
2023/10/15 07:31:07;;;;;;;5.13;1.70;;;;;;;;;;4813124;29;20220;-85
2023/10/15 07:33:35;;;;;;;4.20;1.60;;;;;;;;;;4930582;29;20236;-85
2023/10/15 07:36:02;;;;;;;3.87;1.67;;;;;;;;;;4937395;29;20207;-84
2023/10/15 07:38:37;;;;;;;6.40;1.80;;;;;;;;;;4934087;29;20228;-84
2023/10/15 07:41:13;;;;;;;4.07;1.80;;;;;;;;;;4935641;29;20199;-84
2023/10/15 07:43:42;;;;;;;6.60;2.00;;;;;;;;;;4949889;29;20172;-84
2023/10/15 07:49:15;;;;;;;3.90;1.83;;;;;;;;;;4938400;29;20238;-84
2023/10/15 07:52:16;;;;;;;4.43;1.60;;;;;;;;;;4937062;29;20208;-84
2023/10/15 07:54:42;;;;;;;3.07;1.50;;;;;;;;;;4937260;29;20259;-84
2023/10/15 07:57:10;;;;;;;3.60;1.70;;;;;;;;;;4936859;29;20180;-84
2023/10/15 07:59:36;;;;;;;4.90;1.70;;;;;;;;;;4923478;29;20196;-84
2023/10/15 08:02:26;;;;;;;4.83;1.70;;;;;;;;;;4954540;29;20182;-85
2023/10/15 08:05:00;;;;;;;4.00;1.60;;;;;;;;;;4955696;29;20186;-84
2023/10/15 08:07:30;;;;;;;4.77;1.60;;;;;;;;;;4940424;29;20184;-86
2023/10/15 08:13:04;;;;;;;8.00;1.97;;;;;;;;;;4956630;29;20186;-86
2023/10/15 08:18:26;;;;;;;4.17;1.40;;;;;;;;;;4939909;29;20187;-86
2023/10/15 08:20:55;;;;;;;5.07;1.40;;;;;;;;;;4937181;29;20187;-86
2023/10/15 08:23:31;;;;;;;5.17;1.67;;;;;;;;;;4943827;29;20192;-86
2023/10/15 08:25:59;;;;;;;5.07;1.47;;;;;;;;;;4952576;29;20235;-85
2023/10/15 08:28:26;;;;;;;4.03;1.40;;;;;;;;;;4952921;29;20194;-84
2023/10/15 08:30:57;;;;;;;6.27;1.70;;;;;;;;;;4952163;29;20208;-86
2023/10/15 08:36:46;;;;;;;27.77;3.97;;;;;;;;;;4942638;29;20215;-86
2023/10/15 08:42:39;;;;;;;5.17;1.60;;;;;;;;;;4945624;29;20234;-86
2023/10/15 08:45:06;;;;;;;4.63;1.53;;;;;;;;;;4946103;29;20187;-86
2023/10/15 08:50:49;;;;;;;4.23;1.53;;;;;;;;;;4937115;29;20207;-86
2023/10/15 08:53:28;;;;;;;3.40;1.40;;;;;;;;;;4920676;29;20195;-85
2023/10/15 08:59:18;;;;;;;1.80;1.10;;;;;;;;;;4916546;29;20159;-87
2023/10/15 09:02:13;;;;;;;3.27;1.30;;;;;;;;;;4916227;29;20184;-86
2023/10/15 09:10:52;;;;;;;2.33;1.10;;;;;;;;;;4935489;28;20226;-87
2023/10/15 09:13:26;;;;;;;4.50;1.27;;;;;;;;;;4919551;29;20232;-87
2023/10/15 09:21:58;;;;;;;3.27;1.43;;;;;;;;;;4935307;29;20231;-88
2023/10/15 09:24:31;;;;;;;3.47;1.30;;;;;;;;;;4918088;29;20184;-89
2023/10/15 09:30:18;;;;;;;4.97;1.30;;;;;;;;;;4937076;29;20227;-89
2023/10/15 09:36:06;;;;;;;3.53;1.33;;;;;;;;;;4940344;29;20261;-86
2023/10/15 09:39:26;;;;;;;2.40;1.27;;;;;;;;;;4937320;29;20203;-87
2023/10/15 09:45:47;;;;;;;4.60;1.40;;;;;;;;;;4950931;29;20238;-85
2023/10/15 09:51:50;;;;;;;3.07;0.97;;;;;;;;;;4940647;29;20226;-85
2023/10/15 09:54:23;;;;;;;2.50;1.00;;;;;;;;;;4939135;29;20274;-85
2023/10/15 09:56:49;;;;;;;2.67;1.00;;;;;;;;;;4938947;29;20215;-86
2023/10/15 10:05:49;;;;;;;2.00;1.03;;;;;;;;;;4928270;29;20196;-86
2023/10/15 10:08:22;;;;;;;2.93;1.07;;;;;;;;;;4951727;29;20180;-86
2023/10/15 10:11:17;;;;;;;1.87;1.03;;;;;;;;;;4949522;29;20211;-85
2023/10/15 10:13:43;;;;;;;3.57;1.27;;;;;;;;;;4939896;29;20211;-85
2023/10/15 10:16:24;;;;;;;4.20;1.17;;;;;;;;;;4942571;29;20180;-85
2023/10/15 10:18:53;;;;;;;4.20;1.20;;;;;;;;;;4953343;29;20194;-86
2023/10/15 10:21:25;;;;;;;2.43;1.40;;;;;;;;;;4952571;29;20187;-84
2023/10/15 10:23:53;;;;;;;4.17;1.20;;;;;;;;;;4939441;29;20194;-85
2023/10/15 10:26:19;;;;;;;4.10;1.73;;;;;;;;;;4949958;29;20288;-85
2023/10/15 10:35:12;;;;;;;3.57;1.23;;;;;;;;;;4949703;29;20190;-85
2023/10/15 10:37:58;;;;;;;3.97;1.20;;;;;;;;;;4953692;29;20215;-85
2023/10/15 10:40:47;;;;;;;4.33;1.20;;;;;;;;;;4955648;29;20290;-85
2023/10/15 10:43:24;;;;;;;3.13;1.50;;;;;;;;;;4944721;28;20275;-85
2023/10/15 10:46:01;;;;;;;3.27;1.17;;;;;;;;;;4938041;29;20198;-85
2023/10/15 10:51:32;;;;;;;2.73;1.20;;;;;;;;;;4947521;29;20254;-85
2023/10/15 10:53:58;;;;;;;2.60;1.10;;;;;;;;;;4941436;29;20191;-86
2023/10/15 10:56:40;;;;;;;;;;;;;;;;;;;;;
2023/10/15 10:59:07;;;;;;;3.00;1.30;;;;;;;;;;4957967;29;20186;-84
2023/10/15 11:01:39;;;;;;;3.53;1.07;;;;;;;;;;4944622;29;20195;-85
2023/10/15 11:04:17;;;;;;;4.30;1.30;;;;;;;;;;4937689;29;20180;-85
2023/10/15 11:06:50;;;;;;;2.20;1.30;;;;;;;;;;4951884;29;20195;-84
2023/10/15 11:09:29;;;;;;;3.87;1.40;;;;;;;;;;4957400;29;20195;-84
2023/10/15 11:12:04;;;;;;;3.03;1.30;;;;;;;;;;4952953;29;20227;-84
2023/10/15 11:17:55;;;;;;;3.50;1.20;;;;;;;;;;4939048;29;20171;-84
2023/10/15 11:20:30;;;;;;;3.73;1.10;;;;;;;;;;4950102;29;20207;-84
2023/10/15 11:23:03;;;;;;;4.80;1.40;;;;;;;;;;4941678;29;20219;-83
2023/10/15 11:25:29;;;;;;;2.90;1.10;;;;;;;;;;4953985;29;20184;-84
2023/10/15 11:28:04;;;;;;;4.30;1.30;;;;;;;;;;4953772;29;20176;-83
2023/10/15 11:30:31;;;;;;;3.70;1.43;;;;;;;;;;4956504;29;20211;-83
2023/10/15 11:32:57;;;;;;;122.33;7.57;;;;;;;;;;4956645;29;20182;-82
2023/10/15 11:35:23;;;;;;;37.97;3.90;;;;;;;;;;4951475;29;20215;-83
2023/10/15 11:37:55;;;;;;;11.23;1.50;;;;;;;;;;4921735;29;20184;-85
2023/10/15 11:40:23;;;;;;;4.73;1.40;;;;;;;;;;4946528;29;20258;-83
2023/10/15 11:42:54;;;;;;;3.83;1.20;;;;;;;;;;4955480;29;20206;-84
2023/10/15 11:45:30;;;;;;;2.57;1.10;;;;;;;;;;4945954;29;20235;-83
2023/10/15 11:47:56;;;;;;;3.57;1.30;;;;;;;;;;4953792;29;20199;-83
2023/10/15 11:50:29;;;;;;;6.67;1.50;;;;;;;;;;4923488;29;20211;-83
2023/10/15 11:52:55;;;;;;;5.87;1.47;;;;;;;;;;4945369;29;20222;-84
2023/10/15 11:55:22;;;;;;;4.07;1.50;;;;;;;;;;4936873;29;20176;-84
2023/10/15 11:57:51;;;;;;;4.40;1.40;;;;;;;;;;4954867;29;20214;-84
2023/10/15 12:00:23;;;;;;;4.70;1.30;;;;;;;;;;4956439;29;20278;-84
2023/10/15 12:02:56;;;;;;;6.27;1.80;;;;;;;;;;4949458;29;20218;-85
2023/10/15 12:05:24;;;;;;;3.70;1.40;;;;;;;;;;4955543;29;20194;-84
2023/10/15 12:07:50;;;;;;;3.07;1.10;;;;;;;;;;4939879;29;20199;-85
2023/10/15 12:13:23;;;;;;;4.83;1.60;;;;;;;;;;4945863;29;20302;-84
2023/10/15 12:15:51;;;;;;;4.43;1.33;;;;;;;;;;4921324;29;20188;-86
2023/10/15 12:18:20;;;;;;;4.87;1.30;;;;;;;;;;4924956;29;20187;-84
2023/10/15 12:20:51;;;;;;;4.57;1.33;;;;;;;;;;4945565;29;20192;-84
2023/10/15 12:23:24;;;;;;;4.50;1.20;;;;;;;;;;4936999;29;20304;-85
2023/10/15 12:25:53;;;;;;;7.53;1.40;;;;;;;;;;4920913;29;20192;-84
2023/10/15 12:28:47;;;;;;;3.97;1.50;;;;;;;;;;4936394;29;20184;-84
2023/10/15 12:31:13;;;;;;;5.57;1.50;;;;;;;;;;4936455;29;20212;-83
2023/10/15 12:33:42;;;;;;;5.30;1.40;;;;;;;;;;4955585;29;20198;-84
2023/10/15 12:36:09;;;;;;;8.43;1.80;;;;;;;;;;4920364;29;20207;-84
2023/10/15 12:38:58;;;;;;;10.95;2.00;;;;;;;;;;4951515;29;20494;-83
2023/10/15 12:41:30;;;;;;;65.10;4.47;;;;;;;;;;4934404;29;20283;-83
2023/10/15 12:43:58;;;;;;;18.40;1.87;;;;;;;;;;4942966;29;20187;-83
2023/10/15 12:46:29;;;;;;;6.77;1.90;;;;;;;;;;4952128;29;20176;-84
2023/10/15 12:48:56;;;;;;;34.30;2.77;;;;;;;;;;4955178;29;20195;-84
2023/10/15 12:51:23;;;;;;;6.67;2.50;;;;;;;;;;4955632;29;20293;-84
2023/10/15 12:53:52;;;;;;;3.13;1.80;;;;;;;;;;4941162;29;20184;-83
2023/10/15 12:56:18;;;;;;;12.53;1.80;;;;;;;;;;4920480;29;20184;-83
2023/10/15 12:58:52;;;;;;;5.17;1.60;;;;;;;;;;4942453;29;20191;-83
2023/10/15 13:01:21;;;;;;;7.50;1.50;;;;;;;;;;4950521;29;20258;-83
2023/10/15 13:03:49;;;;;;;4.90;1.53;;;;;;;;;;4952605;29;20194;-83
2023/10/15 13:06:15;;;;;;;7.13;1.70;;;;;;;;;;4942191;29;20218;-83
2023/10/15 13:08:44;;;;;;;7.57;1.30;;;;;;;;;;4932848;29;20191;-82
2023/10/15 13:11:13;;;;;;;9.23;1.77;;;;;;;;;;4930510;29;20283;-83
2023/10/15 13:13:42;;;;;;;26.37;2.47;;;;;;;;;;4921190;29;20180;-83
2023/10/15 13:16:12;;;;;;;8.00;1.70;;;;;;;;;;4920089;29;20247;-83
2023/10/15 13:18:40;;;;;;;5.67;1.00;;;;;;;;;;4936021;29;20187;-82
2023/10/15 13:21:08;;;;;;;6.40;1.27;;;;;;;;;;4935826;29;20191;-83
2023/10/15 13:23:35;;;;;;;50.30;4.33;;;;;;;;;;4920462;29;20188;-83
2023/10/15 13:26:09;;;;;;;48.17;4.40;;;;;;;;;;4942051;29;20187;-83
2023/10/15 13:28:39;;;;;;;51.33;3.57;;;;;;;;;;4946450;29;20198;-82
2023/10/15 13:31:09;;;;;;;10.17;1.47;;;;;;;;;;4950677;29;20220;-82
2023/10/15 13:33:56;;;;;;;3.07;1.20;;;;;;;;;;4935961;29;20191;-83
2023/10/15 13:36:25;;;;;;;2.70;1.00;;;;;;;;;;4948863;29;20239;-84
2023/10/15 13:38:51;;;;;;;3.22;1.10;;;;;;;;;;4920962;29;20421;-85
2023/10/15 13:41:18;;;;;;;1.40;0.90;;;;;;;;;;4935661;29;20227;-85
2023/10/15 13:43:48;;;;;;;3.63;1.20;;;;;;;;;;4940836;29;20198;-85
2023/10/15 13:46:30;;;;;;;4.83;1.23;;;;;;;;;;4938022;29;20326;-86
2023/10/15 13:48:58;;;;;;;3.13;1.20;;;;;;;;;;4935452;29;20176;-85
2023/10/15 13:51:26;;;;;;;3.60;1.50;;;;;;;;;;4934331;29;20438;-85
2023/10/15 13:53:56;;;;;;;2.00;1.10;;;;;;;;;;4919673;29;20187;-85
2023/10/15 13:56:23;;;;;;;3.83;1.40;;;;;;;;;;4954065;29;20192;-85
2023/10/15 13:58:49;;;;;;;3.17;1.27;;;;;;;;;;4954338;29;20332;-85
2023/10/15 14:01:17;;;;;;;4.10;1.10;;;;;;;;;;4934911;29;20192;-85
2023/10/15 14:03:45;;;;;;;2.90;1.30;;;;;;;;;;4935376;29;20176;-85
2023/10/15 14:06:11;;;;;;;7.40;1.70;;;;;;;;;;4935257;29;20279;-85
2023/10/15 14:08:40;;;;;;;5.73;1.40;;;;;;;;;;4920082;29;20215;-86
2023/10/15 14:11:07;;;;;;;5.63;1.80;;;;;;;;;;4935467;29;20212;-85
2023/10/15 14:13:33;;;;;;;4.73;1.87;;;;;;;;;;4950058;29;20179;-84
2023/10/15 14:16:01;;;;;;;4.03;1.57;;;;;;;;;;4953233;29;20180;-84
2023/10/15 14:18:31;;;;;;;4.03;1.40;;;;;;;;;;4940119;29;20184;-84
2023/10/15 14:20:57;;;;;;;4.73;1.67;;;;;;;;;;4957391;29;20194;-84
2023/10/15 14:23:56;;;;;;;5.27;1.50;;;;;;;;;;4943332;29;20192;-84
2023/10/15 14:26:23;;;;;;;5.97;1.30;;;;;;;;;;4904425;29;20197;-84
2023/10/15 14:28:50;;;;;;;3.43;1.40;;;;;;;;;;4920539;29;20200;-84
2023/10/15 14:31:33;;;;;;;5.53;1.70;;;;;;;;;;4917006;29;20217;-84
2023/10/15 14:34:33;;;;;;;4.07;1.23;;;;;;;;;;4932655;29;20239;-85
2023/10/15 14:37:20;;;;;;;4.83;1.27;;;;;;;;;;4928327;29;20211;-84
2023/10/15 14:39:49;;;;;;;5.07;1.40;;;;;;;;;;4914609;29;20196;-84
2023/10/15 14:42:15;;;;;;;8.73;1.60;;;;;;;;;;4936405;29;20314;-84
2023/10/15 14:47:44;;;;;;;6.37;1.57;;;;;;;;;;4918545;29;20231;-85
2023/10/15 14:50:12;;;;;;;5.37;1.67;;;;;;;;;;4902408;29;20194;-87
2023/10/15 14:52:40;;;;;;;5.03;1.40;;;;;;;;;;4917878;29;20181;-85
2023/10/15 14:55:27;;;;;;;3.17;1.20;;;;;;;;;;4907391;29;20189;-84
2023/10/15 14:57:53;;;;;;;3.83;1.30;;;;;;;;;;4918169;29;20184;-84
2023/10/15 15:00:22;;;;;;;2.40;1.10;;;;;;;;;;4921332;29;20187;-85
2023/10/15 15:02:51;;;;;;;3.67;1.20;;;;;;;;;;4930079;29;20203;-85
2023/10/15 15:05:18;;;;;;;3.20;1.20;;;;;;;;;;4913453;29;20219;-84
2023/10/15 15:08:07;;;;;;;4.53;1.30;;;;;;;;;;4932083;29;20212;-85
2023/10/15 15:13:38;;;;;;;3.70;1.40;;;;;;;;;;4946846;29;20178;-84
2023/10/15 15:16:16;;;;;;;3.40;1.30;;;;;;;;;;4938807;29;20201;-84
2023/10/15 15:22:06;;;;;;;4.07;1.43;;;;;;;;;;4954147;29;20216;-83
2023/10/15 15:24:33;;;;;;;4.80;1.67;;;;;;;;;;4940527;29;20219;-82
2023/10/15 15:27:06;;;;;;;4.20;1.60;;;;;;;;;;4930859;29;20195;-82
2023/10/15 15:29:32;;;;;;;4.60;2.07;;;;;;;;;;4947586;29;20191;-82
2023/10/15 15:32:02;;;;;;;5.33;1.40;;;;;;;;;;4947482;29;20269;-82
2023/10/15 15:34:40;;;;;;;;;;;;;;;;;;;;;
2023/10/15 15:37:12;;;;;;;4.37;1.77;;;;;;;;;;4949040;29;20175;-91
2023/10/15 15:39:41;;;;;;;6.27;1.60;;;;;;;;;;4946183;29;20298;-90
2023/10/15 15:42:07;;;;;;;6.13;1.50;;;;;;;;;;4943709;29;20235;-91
2023/10/15 15:44:34;;;;;;;3.83;1.40;;;;;;;;;;4948485;29;20199;-91
2023/10/15 15:47:11;;;;;;;3.87;1.37;;;;;;;;;;4944987;29;20220;-90
2023/10/15 15:49:43;;;;;;;4.80;1.63;;;;;;;;;;4936156;29;20188;-92
2023/10/15 15:52:09;;;;;;;4.60;1.43;;;;;;;;;;4948118;29;20223;-90
2023/10/15 15:54:52;;;;;;;6.33;1.83;;;;;;;;;;4947705;29;20183;-90
2023/10/15 15:57:26;;;;;;;3.67;1.70;;;;;;;;;;4931044;29;20191;-91
2023/10/15 16:00:17;;;;;;;5.80;2.00;;;;;;;;;;4946933;29;20195;-92
2023/10/15 16:02:42;;;;;;;6.17;2.63;;;;;;;;;;4949703;29;20218;-91
2023/10/15 16:05:08;;;;;;;5.87;2.67;;;;;;;;;;4950171;28;20212;-89
2023/10/15 16:07:44;;;;;;;;;;;;;;;;;;;;;
2023/10/15 16:10:15;;;;;;;4.83;2.37;;;;;;;;;;4950142;29;20238;-91
2023/10/15 16:13:02;;;;;;;6.80;2.80;;;;;;;;;;4940521;29;20445;-89
2023/10/15 16:15:27;;;;;;;6.50;2.90;;;;;;;;;;4945795;29;20777;-92
2023/10/15 16:18:14;;;;;;;6.10;2.30;;;;;;;;;;4950775;29;20219;-85
2023/10/15 16:20:42;;;;;;;8.10;3.72;;;;;;;;;;4943985;29;20417;-86
2023/10/15 16:23:09;;;;;;;7.25;3.30;;;;;;;;;;4927843;29;20410;-91
2023/10/15 16:25:35;;;;;;;7.83;3.20;;;;;;;;;;4954727;29;20416;-91
2023/10/15 16:28:06;;;;;;;7.40;3.15;;;;;;;;;;4949203;29;20524;-92
2023/10/15 16:30:32;;;;;;;6.13;2.63;;;;;;;;;;4943245;29;20435;-92
2023/10/15 16:33:07;;;;;;;5.07;2.97;;;;;;;;;;4953095;29;20429;-92
2023/10/15 16:35:33;;;;;;;5.40;3.10;;;;;;;;;;4948443;29;20468;-92
2023/10/15 16:38:02;;;;;;;5.65;2.50;;;;;;;;;;4947430;29;20408;-86
2023/10/15 16:40:29;;;;;;;5.43;2.73;;;;;;;;;;4945522;28;20439;-86
2023/10/15 16:43:02;;;;;;;6.63;2.60;;;;;;;;;;4942198;29;20422;-86
2023/10/15 16:45:32;;;;;;;5.70;2.45;;;;;;;;;;4946591;29;20524;-85
2023/10/15 16:48:00;;;;;;;4.75;2.40;;;;;;;;;;4943039;29;20409;-86
2023/10/15 16:50:26;;;;;;;5.30;2.35;;;;;;;;;;4942660;29;20437;-85
2023/10/15 16:52:52;;;;;;;5.95;2.45;;;;;;;;;;4927105;29;20414;-86
2023/10/15 16:55:21;;;;;;;4.20;2.37;;;;;;;;;;4946145;29;20412;-86
2023/10/15 16:57:47;;;;;;;5.78;2.70;;;;;;;;;;4943502;29;20428;-85
2023/10/15 17:00:13;;;;;;;7.20;2.80;;;;;;;;;;4945351;29;20505;-85
2023/10/15 17:02:42;;;;;;;5.88;2.63;;;;;;;;;;4943824;29;20448;-85
2023/10/15 17:05:08;;;;;;;7.05;2.85;;;;;;;;;;4933593;29;20422;-86
2023/10/15 17:07:34;;;;;;;5.70;2.92;;;;;;;;;;4931249;29;20424;-85
2023/10/15 17:10:07;;;;;;;4.80;3.00;;;;;;;;;;4945214;29;20408;-85
2023/10/15 17:12:36;;;;;;;7.63;3.70;;;;;;;;;;4944734;29;20417;-86
2023/10/15 17:15:07;;;;;;;8.50;4.30;;;;;;;;;;4943890;29;20494;-86
2023/10/15 17:17:33;;;;;;;7.78;4.30;;;;;;;;;;4942693;29;20408;-85
2023/10/15 17:20:05;;;;;;;7.32;4.43;;;;;;;;;;4944675;29;20464;-85
2023/10/15 17:22:31;;;;;;;6.93;4.00;;;;;;;;;;4943927;29;20429;-85
2023/10/15 17:25:07;;;;;;;7.97;3.90;;;;;;;;;;4935817;29;20435;-85
2023/10/15 17:27:36;;;;;;;7.53;3.70;;;;;;;;;;4942443;29;20419;-85
2023/10/15 17:30:03;;;;;;;10.13;3.75;;;;;;;;;;4944794;29;20414;-85
2023/10/15 17:32:31;;;;;;;7.83;3.67;;;;;;;;;;4946736;29;20437;-86
2023/10/15 17:35:01;;;;;;;7.45;4.03;;;;;;;;;;4929294;29;20420;-85
2023/10/15 17:37:28;;;;;;;7.60;4.07;;;;;;;;;;4942801;29;20420;-85
2023/10/15 17:39:58;;;;;;;10.20;4.03;;;;;;;;;;4945747;29;20443;-85
2023/10/15 17:42:24;;;;;;;7.57;3.58;;;;;;;;;;4930643;29;20440;-86
2023/10/15 17:44:55;;;;;;;7.38;3.60;;;;;;;;;;4942552;29;20424;-85
2023/10/15 17:47:21;;;;;;;8.75;3.72;;;;;;;;;;4943383;29;20409;-86
2023/10/15 17:49:47;;;;;;;7.03;3.80;;;;;;;;;;4946715;29;20425;-85
2023/10/15 17:52:14;;;;;;;8.57;4.57;;;;;;;;;;4928492;29;20467;-85
2023/10/15 17:54:43;;;;;;;8.93;5.00;;;;;;;;;;4947653;29;20405;-85
2023/10/15 17:57:09;;;;;;;8.65;6.03;;;;;;;;;;4947390;29;20426;-85
2023/10/15 17:59:37;;;;;;;8.95;6.35;;;;;;;;;;4950121;29;20404;-86
2023/10/15 18:02:03;;;;;;;9.23;6.20;;;;;;;;;;4947488;29;20431;-85
2023/10/15 18:04:29;;;;;;;9.73;6.15;;;;;;;;;;4947928;29;20439;-85
2023/10/15 18:06:55;;;;;;;8.40;6.13;;;;;;;;;;4946788;29;20417;-85
2023/10/15 18:09:21;;;;;;;9.50;6.32;;;;;;;;;;4948587;29;20415;-86
2023/10/15 18:11:51;;;;;;;11.63;7.63;;;;;;;;;;4945489;29;20481;-85
2023/10/15 18:14:17;;;;;;;10.85;7.50;;;;;;;;;;4949128;29;20417;-85
2023/10/15 18:16:43;;;;;;;12.93;8.10;;;;;;;;;;4949345;29;20413;-85
2023/10/15 18:19:11;;;;;;;10.30;8.10;;;;;;;;;;4950193;29;20470;-85
2023/10/15 18:21:38;;;;;;;10.02;7.05;;;;;;;;;;4945735;29;20425;-85
2023/10/15 18:24:09;;;;;;;11.07;7.00;;;;;;;;;;4948694;29;20412;-85
2023/10/15 18:26:35;;;;;;;11.15;6.80;;;;;;;;;;4930072;29;20427;-85
2023/10/15 18:29:01;;;;;;;9.23;6.53;;;;;;;;;;4945366;29;20429;-85
2023/10/15 18:31:27;;;;;;;9.85;6.80;;;;;;;;;;4948519;29;20463;-85
2023/10/15 18:33:57;;;;;;;9.30;6.50;;;;;;;;;;4946078;29;20423;-85
2023/10/15 18:36:25;;;;;;;10.53;6.93;;;;;;;;;;4948235;29;20416;-85
2023/10/15 18:38:55;;;;;;;9.23;6.80;;;;;;;;;;4948857;29;20453;-85
2023/10/15 18:41:23;;;;;;;9.55;6.70;;;;;;;;;;4948521;29;20446;-85
2023/10/15 18:43:53;;;;;;;10.75;7.53;;;;;;;;;;4948084;29;20433;-86
2023/10/15 18:46:19;;;;;;;8.67;5.53;;;;;;;;;;4953309;29;20421;-85
2023/10/15 18:48:45;;;;;;;9.15;6.20;;;;;;;;;;4951954;29;20437;-85
2023/10/15 18:51:20;;;;;;;12.10;7.78;;;;;;;;;;4946541;29;20439;-85
2023/10/15 18:53:46;;;;;;;12.05;8.30;;;;;;;;;;4948328;29;20420;-86
2023/10/15 18:56:20;;;;;;;15.15;9.07;;;;;;;;;;4946983;29;20421;-85
2023/10/15 18:58:50;;;;;;;12.93;9.00;;;;;;;;;;4945252;29;20428;-85
2023/10/15 19:01:16;;;;;;;13.38;8.52;;;;;;;;;;4936630;29;20418;-85
2023/10/15 19:03:42;;;;;;;10.47;6.40;;;;;;;;;;4947717;29;20546;-85
2023/10/15 19:06:13;;;;;;;11.18;6.13;;;;;;;;;;4944343;29;20412;-86
2023/10/15 19:08:39;;;;;;;9.57;5.90;;;;;;;;;;4945253;29;20445;-85
2023/10/15 19:11:13;;;;;;;9.43;6.40;;;;;;;;;;4947138;29;20443;-85
2023/10/15 19:13:40;;;;;;;13.10;8.32;;;;;;;;;;4932474;29;20431;-85
2023/10/15 19:16:11;;;;;;;12.05;8.35;;;;;;;;;;4951471;29;20447;-85
2023/10/15 19:18:40;;;;;;;8.52;5.95;;;;;;;;;;4944866;29;20430;-85
2023/10/15 19:21:11;;;;;;;8.98;5.07;;;;;;;;;;4944480;29;20414;-85
2023/10/15 19:23:48;;;;;;;7.90;4.70;;;;;;;;;;4929788;29;20414;-85
2023/10/15 19:26:14;;;;;;;9.20;5.38;;;;;;;;;;4950875;29;20409;-86
2023/10/15 19:28:43;;;;;;;9.20;5.90;;;;;;;;;;4940043;29;20426;-85
2023/10/15 19:31:19;;;;;;;9.02;5.80;;;;;;;;;;4953546;29;20431;-87
2023/10/15 19:36:37;;;;;;;8.88;5.88;;;;;;;;;;4943209;28;20416;-88
2023/10/15 19:42:10;;;;;;;9.02;5.00;;;;;;;;;;4945277;29;20417;-89
2023/10/15 20:00:33;;;;;;;10.55;5.10;;;;;;;;;;4830669;29;20476;-85
2023/10/15 20:09:12;;;;;;;10.65;5.30;;;;;;;;;;4723697;30;20445;-86
2023/10/15 20:19:07;;;;;;;8.48;4.53;;;;;;;;;;4758511;30;20575;-86
2023/10/15 20:21:52;;;;;;;8.82;4.70;;;;;;;;;;4811159;29;20427;-85
2023/10/15 20:28:02;;;;;;;9.32;4.97;;;;;;;;;;4826748;29;20437;-86
2023/10/15 20:55:45;;;;;;;16.48;11.02;;;;;;;;;;4823020;29;20421;-90
2023/10/15 20:58:35;;;;;;;16.00;11.05;;;;;;;;;;4802032;29;20433;-88
2023/10/15 21:01:20;;;;;;;15.55;11.52;;;;;;;;;;4820724;29;20414;-92
2023/10/15 21:06:36;;;;;;;15.20;11.85;;;;;;;;;;4835383;29;20442;-90
2023/10/15 21:09:23;;;;;;;14.48;12.23;;;;;;;;;;4898663;29;20431;-90
2023/10/15 21:15:03;;;;;;;16.52;12.35;;;;;;;;;;4913165;29;20490;-91
2023/10/15 21:17:59;;;;;;;;;;;;;;;;;;;;;
2023/10/15 21:20:54;;;;;;;13.85;12.00;;;;;;;;;;4946498;29;20408;-91
2023/10/15 21:24:15;;;;;;;14.73;11.30;;;;;;;;;;4924402;29;20429;-91
2023/10/15 21:26:58;;;;;;;13.13;10.38;;;;;;;;;;4878688;29;20431;-91
2023/10/15 21:33:15;;;;;;;11.40;10.00;;;;;;;;;;4842818;29;20453;-90
2023/10/15 21:36:04;;;;;;;13.23;10.10;;;;;;;;;;4804998;29;20501;-91
2023/10/15 21:41:35;;;;;;;13.43;8.90;;;;;;;;;;4833390;29;20215;-90
2023/10/15 21:44:13;;;;;;;11.90;8.50;;;;;;;;;;4847817;29;20445;-91
2023/10/15 21:53:00;;;;;;;11.23;8.93;;;;;;;;;;4798049;29;20533;-91